Time;durP1;ratioP1;P1;durP2;ratioP2;P2;SDS_P1;SDS_P2;PMS_P1;PMS_P2;Temp;Humidity;BMP_temperature;BMP_pressure;BME280_temperature;BME280_humidity;BME280_pressure;Samples;Min_cycle;Max_cycle;Signal;HPM_P1;HPM_P2
2022/11/08 00:01:32;;;;;;;0.10;0.10;;;;;;;;;;5085914;28;20032;-70
2022/11/08 00:03:59;;;;;;;0.10;0.10;;;;;;;;;;5089537;28;20024;-70
2022/11/08 00:14:39;;;;;;;0.10;0.10;;;;;;;;;;5089679;28;20036;-71
2022/11/08 00:17:04;;;;;;;0.10;0.10;;;;;;;;;;5091215;28;20025;-70
2022/11/08 00:19:31;;;;;;;0.20;0.20;;;;;;;;;;5093327;28;20024;-69
2022/11/08 00:21:56;;;;;;;0.10;0.10;;;;;;;;;;5093190;28;20471;-70
2022/11/08 00:24:23;;;;;;;0.10;0.10;;;;;;;;;;5091902;28;20041;-70
2022/11/08 00:26:49;;;;;;;0.10;0.10;;;;;;;;;;5093572;28;20540;-70
2022/11/08 00:29:15;;;;;;;0.10;0.10;;;;;;;;;;5093178;28;20036;-70
2022/11/08 00:31:42;;;;;;;0.17;0.17;;;;;;;;;;5093023;28;20032;-70
2022/11/08 00:34:07;;;;;;;0.10;0.10;;;;;;;;;;5093151;28;20093;-70
2022/11/08 00:36:33;;;;;;;0.10;0.10;;;;;;;;;;5093054;28;20023;-69
2022/11/08 00:38:59;;;;;;;0.65;0.65;;;;;;;;;;5092073;28;20539;-71
2022/11/08 00:41:25;;;;;;;0.10;0.10;;;;;;;;;;5093447;28;20111;-70
2022/11/08 00:43:51;;;;;;;0.20;0.20;;;;;;;;;;5093040;28;20099;-70
2022/11/08 00:46:17;;;;;;;0.20;0.20;;;;;;;;;;5091507;28;20044;-70
2022/11/08 00:48:43;;;;;;;0.10;0.10;;;;;;;;;;5091841;28;20036;-70
2022/11/08 00:51:10;;;;;;;0.10;0.10;;;;;;;;;;5092886;28;20032;-70
2022/11/08 00:53:37;;;;;;;0.10;0.10;;;;;;;;;;5093131;28;20034;-71
2022/11/08 00:56:04;;;;;;;0.10;0.10;;;;;;;;;;5092917;28;20032;-70
2022/11/08 00:58:30;;;;;;;0.45;0.45;;;;;;;;;;5093010;28;20020;-70
2022/11/08 01:00:56;;;;;;;0.30;0.30;;;;;;;;;;5098596;28;20032;-70
2022/11/08 01:03:22;;;;;;;0.43;0.43;;;;;;;;;;5112067;28;20067;-70
2022/11/08 01:05:49;;;;;;;0.30;0.30;;;;;;;;;;5112149;28;20034;-69
2022/11/08 01:08:15;;;;;;;0.20;0.20;;;;;;;;;;5113218;28;20035;-69
2022/11/08 01:10:42;;;;;;;0.10;0.10;;;;;;;;;;5111841;28;20043;-70
2022/11/08 01:13:08;;;;;;;0.20;0.20;;;;;;;;;;5113457;28;20504;-71
2022/11/08 01:15:35;;;;;;;0.90;0.90;;;;;;;;;;5116105;28;20020;-70
2022/11/08 01:18:01;;;;;;;0.10;0.10;;;;;;;;;;5116872;28;20030;-70
2022/11/08 01:20:27;;;;;;;0.10;0.10;;;;;;;;;;5115890;28;20119;-70
2022/11/08 01:22:54;;;;;;;0.10;0.10;;;;;;;;;;5117258;28;20074;-70
2022/11/08 01:25:20;;;;;;;0.10;0.10;;;;;;;;;;5115593;28;20027;-70
2022/11/08 01:27:46;;;;;;;0.17;0.17;;;;;;;;;;5116820;28;20467;-71
2022/11/08 01:30:12;;;;;;;0.17;0.17;;;;;;;;;;5116522;28;20077;-70
2022/11/08 01:32:38;;;;;;;0.10;0.10;;;;;;;;;;5116585;28;20043;-70
2022/11/08 01:35:04;;;;;;;0.40;0.40;;;;;;;;;;5115683;28;20028;-70
2022/11/08 01:37:30;;;;;;;0.10;0.10;;;;;;;;;;5116759;28;20038;-71
2022/11/08 01:39:55;;;;;;;0.10;0.10;;;;;;;;;;5116890;28;20027;-70
2022/11/08 01:42:31;;;;;;;0.10;0.10;;;;;;;;;;5115623;28;20042;-70
2022/11/08 01:44:57;;;;;;;0.20;0.20;;;;;;;;;;5116417;28;20077;-71
2022/11/08 01:47:23;;;;;;;0.10;0.10;;;;;;;;;;5115236;28;20063;-71
2022/11/08 01:49:51;;;;;;;0.10;0.10;;;;;;;;;;5116406;28;20490;-70
2022/11/08 01:52:19;;;;;;;0.20;0.20;;;;;;;;;;5115549;28;20097;-71
2022/11/08 01:54:49;;;;;;;0.20;0.20;;;;;;;;;;5116542;28;20097;-70
2022/11/08 01:57:18;;;;;;;0.32;0.32;;;;;;;;;;5116807;28;20463;-70
2022/11/08 01:59:46;;;;;;;0.10;0.10;;;;;;;;;;5116605;28;20110;-70
2022/11/08 02:02:12;;;;;;;0.75;0.75;;;;;;;;;;5116303;28;20020;-70
2022/11/08 02:04:39;;;;;;;0.20;0.20;;;;;;;;;;5116201;28;20024;-70
2022/11/08 02:07:06;;;;;;;0.20;0.20;;;;;;;;;;5114975;28;20031;-70
2022/11/08 02:09:33;;;;;;;0.20;0.20;;;;;;;;;;5116053;28;20649;-70
2022/11/08 02:11:59;;;;;;;2.92;2.83;;;;;;;;;;5114918;28;20024;-71
2022/11/08 02:14:25;;;;;;;0.10;0.10;;;;;;;;;;5114770;28;20036;-70
2022/11/08 02:16:50;;;;;;;0.20;0.20;;;;;;;;;;5097780;28;20052;-70
2022/11/08 02:19:20;;;;;;;0.30;0.30;;;;;;;;;;5114856;28;20046;-70
2022/11/08 02:21:54;;;;;;;0.10;0.10;;;;;;;;;;5115917;28;20440;-70
2022/11/08 02:24:20;;;;;;;0.63;0.63;;;;;;;;;;5115868;27;20023;-71
2022/11/08 02:26:46;;;;;;;1.98;1.88;;;;;;;;;;5113476;28;20028;-70
2022/11/08 02:29:22;;;;;;;4.25;1.13;;;;;;;;;;5115705;27;20031;-71
2022/11/08 02:31:48;;;;;;;0.10;0.10;;;;;;;;;;5117917;28;20034;-70
2022/11/08 02:34:14;;;;;;;0.20;0.20;;;;;;;;;;5117977;28;20019;-70
2022/11/08 02:36:42;;;;;;;0.10;0.10;;;;;;;;;;5114345;28;20485;-70
2022/11/08 02:39:08;;;;;;;0.15;0.15;;;;;;;;;;5114198;28;20062;-71
2022/11/08 02:41:34;;;;;;;0.10;0.10;;;;;;;;;;5115296;28;20028;-70
2022/11/08 02:44:00;;;;;;;0.10;0.10;;;;;;;;;;5115250;28;20035;-71
2022/11/08 02:46:25;;;;;;;2.72;2.38;;;;;;;;;;5115284;28;20051;-70
2022/11/08 02:48:51;;;;;;;0.10;0.10;;;;;;;;;;5115170;28;20036;-71
2022/11/08 02:51:17;;;;;;;1.77;1.58;;;;;;;;;;5115598;28;20028;-70
2022/11/08 02:53:43;;;;;;;0.20;0.20;;;;;;;;;;5115031;28;20027;-70
2022/11/08 02:56:09;;;;;;;0.10;0.10;;;;;;;;;;5113827;28;20535;-70
2022/11/08 02:58:35;;;;;;;1.27;1.27;;;;;;;;;;5114023;28;20043;-70
2022/11/08 03:01:01;;;;;;;0.13;0.13;;;;;;;;;;5096965;28;20435;-70
2022/11/08 03:03:27;;;;;;;0.15;0.15;;;;;;;;;;5115117;28;20034;-69
2022/11/08 03:05:54;;;;;;;2.75;1.27;;;;;;;;;;5115204;28;20098;-71
2022/11/08 03:08:21;;;;;;;0.68;0.68;;;;;;;;;;5115278;28;20031;-70
2022/11/08 03:10:47;;;;;;;0.20;0.20;;;;;;;;;;5113853;28;20044;-71
2022/11/08 03:13:13;;;;;;;0.10;0.10;;;;;;;;;;5115236;28;20433;-71
2022/11/08 03:15:39;;;;;;;0.10;0.10;;;;;;;;;;5113300;28;20080;-71
2022/11/08 03:18:07;;;;;;;0.10;0.10;;;;;;;;;;5114783;28;20110;-71
2022/11/08 03:20:33;;;;;;;0.20;0.20;;;;;;;;;;5113508;28;20015;-71
2022/11/08 03:23:00;;;;;;;0.10;0.10;;;;;;;;;;5113368;28;20110;-70
2022/11/08 03:25:26;;;;;;;0.10;0.10;;;;;;;;;;5114458;28;20035;-70
2022/11/08 03:27:52;;;;;;;0.13;0.13;;;;;;;;;;5114482;28;20031;-70
2022/11/08 03:30:18;;;;;;;0.10;0.10;;;;;;;;;;5114298;28;20061;-70
2022/11/08 03:32:45;;;;;;;0.20;0.20;;;;;;;;;;5114435;28;20035;-70
2022/11/08 03:35:11;;;;;;;0.10;0.10;;;;;;;;;;5096247;28;20387;-70
2022/11/08 03:37:37;;;;;;;0.10;0.10;;;;;;;;;;5114131;28;20471;-71
2022/11/08 03:40:04;;;;;;;0.10;0.10;;;;;;;;;;5114262;28;20378;-70
2022/11/08 03:42:29;;;;;;;0.10;0.10;;;;;;;;;;5114598;27;20027;-71
2022/11/08 03:44:55;;;;;;;0.20;0.20;;;;;;;;;;5112989;28;20115;-70
2022/11/08 03:47:21;;;;;;;0.15;0.15;;;;;;;;;;5114048;28;20067;-70
2022/11/08 03:49:47;;;;;;;0.20;0.20;;;;;;;;;;5112825;28;20038;-71
2022/11/08 03:52:13;;;;;;;0.10;0.10;;;;;;;;;;5113954;28;20117;-71
2022/11/08 03:54:39;;;;;;;0.20;0.20;;;;;;;;;;5106085;28;20103;-71
2022/11/08 03:57:05;;;;;;;0.10;0.10;;;;;;;;;;5095687;28;20032;-70
2022/11/08 03:59:30;;;;;;;0.17;0.17;;;;;;;;;;5112299;28;20023;-70
2022/11/08 04:01:56;;;;;;;0.10;0.10;;;;;;;;;;5112801;28;20127;-72
2022/11/08 04:04:22;;;;;;;0.10;0.10;;;;;;;;;;5108460;28;20060;-70
2022/11/08 04:06:48;;;;;;;0.10;0.10;;;;;;;;;;5109946;28;20498;-70
2022/11/08 04:09:14;;;;;;;0.20;0.20;;;;;;;;;;5108727;28;20031;-70
2022/11/08 04:17:09;;;;;;;0.10;0.10;;;;;;;;;;5105824;28;20047;-71
2022/11/08 04:22:20;;;;;;;0.20;0.20;;;;;;;;;;5110768;28;20038;-70
2022/11/08 04:24:46;;;;;;;6.93;1.75;;;;;;;;;;5109813;28;20016;-69
2022/11/08 04:27:11;;;;;;;0.80;0.80;;;;;;;;;;5110016;28;20036;-70
2022/11/08 04:29:37;;;;;;;0.10;0.10;;;;;;;;;;5109903;28;20078;-71
2022/11/08 04:32:04;;;;;;;0.10;0.10;;;;;;;;;;5091934;28;20039;-70
2022/11/08 04:34:30;;;;;;;0.10;0.10;;;;;;;;;;5108696;28;20028;-70
2022/11/08 04:36:56;;;;;;;0.20;0.20;;;;;;;;;;5109476;28;20475;-70
2022/11/08 04:39:22;;;;;;;0.10;0.10;;;;;;;;;;5109900;28;20039;-70
2022/11/08 04:41:48;;;;;;;0.20;0.20;;;;;;;;;;5108607;28;20523;-70
2022/11/08 04:44:17;;;;;;;0.10;0.10;;;;;;;;;;5109861;28;20107;-70
2022/11/08 04:46:42;;;;;;;0.10;0.10;;;;;;;;;;5078217;28;20051;-70
2022/11/08 04:49:08;;;;;;;0.10;0.10;;;;;;;;;;5089271;28;20052;-70
2022/11/08 04:51:34;;;;;;;0.38;0.38;;;;;;;;;;5093384;28;20038;-71
2022/11/08 04:54:01;;;;;;;0.10;0.10;;;;;;;;;;5093452;28;20060;-70
2022/11/08 04:56:28;;;;;;;0.10;0.10;;;;;;;;;;5094616;28;20028;-70
2022/11/08 04:58:55;;;;;;;0.10;0.10;;;;;;;;;;5094340;28;20036;-71
2022/11/08 05:01:22;;;;;;;0.10;0.10;;;;;;;;;;5093561;28;20363;-70
2022/11/08 05:03:49;;;;;;;0.10;0.10;;;;;;;;;;5093812;28;20036;-70
2022/11/08 05:06:17;;;;;;;0.30;0.30;;;;;;;;;;5093137;28;20020;-71
2022/11/08 05:08:43;;;;;;;0.10;0.10;;;;;;;;;;5092875;28;20475;-70
2022/11/08 05:11:10;;;;;;;0.20;0.20;;;;;;;;;;5093139;28;20043;-71
2022/11/08 05:13:36;;;;;;;0.10;0.10;;;;;;;;;;5092999;28;20553;-70
2022/11/08 05:16:06;;;;;;;0.10;0.10;;;;;;;;;;5093005;28;20030;-71
2022/11/08 05:18:31;;;;;;;;;;;;;;;;;;5093029;28;20762;-70
2022/11/08 05:23:43;;;;;;;0.40;0.40;;;;;;;;;;5092799;28;20020;-71
2022/11/08 05:26:09;;;;;;;0.22;0.22;;;;;;;;;;5092672;28;20551;-71
2022/11/08 05:28:34;;;;;;;0.10;0.10;;;;;;;;;;5092176;28;20024;-71
2022/11/08 05:31:00;;;;;;;0.10;0.10;;;;;;;;;;5092500;28;20032;-71
2022/11/08 05:33:26;;;;;;;0.10;0.10;;;;;;;;;;5093103;28;20463;-71
2022/11/08 05:35:52;;;;;;;0.10;0.10;;;;;;;;;;5092613;28;20031;-70
2022/11/08 05:38:18;;;;;;;0.20;0.20;;;;;;;;;;5092403;28;20026;-72
2022/11/08 05:40:44;;;;;;;0.20;0.20;;;;;;;;;;5091238;28;20036;-70
2022/11/08 05:43:10;;;;;;;0.10;0.10;;;;;;;;;;5091174;28;20481;-70
2022/11/08 05:45:36;;;;;;;0.20;0.20;;;;;;;;;;5093697;28;20020;-72
2022/11/08 05:48:03;;;;;;;1.20;1.20;;;;;;;;;;5106503;28;20055;-71
2022/11/08 05:50:33;;;;;;;2.80;2.65;;;;;;;;;;5103486;28;20040;-70
2022/11/08 05:53:03;;;;;;;0.10;0.10;;;;;;;;;;5104787;28;20042;-70
2022/11/08 05:55:29;;;;;;;0.20;0.20;;;;;;;;;;5112679;28;20035;-70
2022/11/08 05:57:55;;;;;;;0.15;0.15;;;;;;;;;;5112336;27;20123;-71
2022/11/08 06:00:21;;;;;;;0.28;0.28;;;;;;;;;;5102904;28;20078;-70
2022/11/08 06:02:47;;;;;;;0.10;0.10;;;;;;;;;;5105355;28;20023;-70
2022/11/08 06:05:13;;;;;;;0.30;0.30;;;;;;;;;;5111594;28;20057;-71
2022/11/08 06:07:39;;;;;;;0.10;0.10;;;;;;;;;;5110763;28;20024;-70
2022/11/08 06:10:06;;;;;;;1.23;1.10;;;;;;;;;;5112415;28;20542;-70
2022/11/08 06:12:32;;;;;;;0.10;0.10;;;;;;;;;;5093822;28;20054;-70
2022/11/08 06:14:58;;;;;;;0.20;0.20;;;;;;;;;;5111006;28;20098;-69
2022/11/08 06:17:24;;;;;;;0.30;0.30;;;;;;;;;;5111253;27;20019;-69
2022/11/08 06:19:49;;;;;;;0.30;0.30;;;;;;;;;;5110316;28;20035;-70
2022/11/08 06:22:15;;;;;;;0.20;0.20;;;;;;;;;;5110711;28;20022;-72
2022/11/08 06:24:41;;;;;;;0.25;0.25;;;;;;;;;;5109896;28;20032;-71
2022/11/08 06:27:07;;;;;;;0.68;0.68;;;;;;;;;;5109061;28;20449;-70
2022/11/08 06:29:33;;;;;;;0.10;0.10;;;;;;;;;;5109057;28;20035;-70
2022/11/08 06:31:59;;;;;;;0.30;0.30;;;;;;;;;;5110006;28;20066;-71
2022/11/08 06:34:25;;;;;;;0.20;0.20;;;;;;;;;;5110013;28;20064;-71
2022/11/08 06:36:51;;;;;;;0.20;0.20;;;;;;;;;;5090776;28;20031;-70
2022/11/08 06:39:18;;;;;;;0.30;0.30;;;;;;;;;;5106421;28;20055;-70
2022/11/08 06:41:43;;;;;;;0.20;0.20;;;;;;;;;;5095200;28;20039;-70
2022/11/08 06:44:09;;;;;;;11.27;1.75;;;;;;;;;;5088360;28;20028;-70
2022/11/08 06:46:35;;;;;;;0.30;0.30;;;;;;;;;;5089019;28;20067;-70
2022/11/08 06:49:01;;;;;;;0.10;0.10;;;;;;;;;;5089700;28;20037;-70
2022/11/08 06:51:27;;;;;;;0.10;0.10;;;;;;;;;;5108290;27;20039;-70
2022/11/08 06:53:53;;;;;;;0.10;0.10;;;;;;;;;;5111403;28;20511;-71
2022/11/08 06:56:18;;;;;;;0.10;0.10;;;;;;;;;;5111522;28;20027;-70
2022/11/08 06:58:44;;;;;;;0.20;0.20;;;;;;;;;;5111004;28;20031;-71
2022/11/08 07:01:10;;;;;;;0.10;0.10;;;;;;;;;;5111803;28;20482;-70
2022/11/08 07:03:36;;;;;;;0.43;0.43;;;;;;;;;;5099893;28;20052;-70
2022/11/08 07:06:05;;;;;;;0.20;0.20;;;;;;;;;;5109935;28;20074;-70
2022/11/08 07:08:32;;;;;;;0.13;0.13;;;;;;;;;;5090803;28;20017;-71
2022/11/08 07:10:58;;;;;;;4.00;3.80;;;;;;;;;;5075793;28;20119;-71
2022/11/08 07:13:24;;;;;;;0.68;0.68;;;;;;;;;;5110561;28;20106;-71
2022/11/08 07:15:50;;;;;;;0.10;0.10;;;;;;;;;;5111820;28;20031;-71
2022/11/08 07:18:17;;;;;;;0.35;0.35;;;;;;;;;;5111916;28;20110;-70
2022/11/08 07:20:43;;;;;;;1.90;1.10;;;;;;;;;;5112686;28;20051;-70
2022/11/08 07:23:09;;;;;;;1.25;1.23;;;;;;;;;;5096022;28;20059;-70
2022/11/08 07:25:35;;;;;;;0.10;0.10;;;;;;;;;;5087738;28;20032;-72
2022/11/08 07:28:03;;;;;;;0.10;0.10;;;;;;;;;;5088925;28;20031;-70
2022/11/08 07:30:30;;;;;;;0.10;0.10;;;;;;;;;;5088371;28;20071;-70
2022/11/08 07:32:56;;;;;;;0.10;0.10;;;;;;;;;;5088109;28;20024;-70
2022/11/08 07:35:23;;;;;;;0.10;0.10;;;;;;;;;;5093558;28;20032;-70
2022/11/08 07:37:49;;;;;;;0.10;0.10;;;;;;;;;;5071998;28;20028;-72
2022/11/08 07:40:15;;;;;;;0.10;0.10;;;;;;;;;;5099261;28;20355;-71
2022/11/08 07:42:41;;;;;;;0.10;0.10;;;;;;;;;;5106451;28;20026;-71
2022/11/08 07:45:09;;;;;;;0.20;0.20;;;;;;;;;;5105751;28;20027;-71
2022/11/08 07:47:35;;;;;;;4.38;3.20;;;;;;;;;;5098077;27;20047;-71
2022/11/08 07:50:03;;;;;;;0.20;0.20;;;;;;;;;;5106907;28;20058;-70
2022/11/08 07:52:29;;;;;;;0.40;0.40;;;;;;;;;;5108389;28;20103;-71
2022/11/08 07:54:55;;;;;;;0.30;0.30;;;;;;;;;;5096161;28;20442;-72
2022/11/08 07:57:21;;;;;;;0.10;0.10;;;;;;;;;;5097043;28;20032;-72
2022/11/08 07:59:47;;;;;;;0.55;0.55;;;;;;;;;;5100390;28;20030;-69
2022/11/08 08:02:13;;;;;;;0.75;0.75;;;;;;;;;;5095949;28;20023;-71
2022/11/08 08:04:39;;;;;;;0.82;0.82;;;;;;;;;;5091972;28;20039;-71
2022/11/08 08:07:05;;;;;;;2.00;1.85;;;;;;;;;;5100232;28;20058;-70
2022/11/08 08:09:33;;;;;;;0.28;0.28;;;;;;;;;;5089592;28;20482;-71
2022/11/08 08:11:59;;;;;;;0.22;0.22;;;;;;;;;;5093077;28;20032;-71
2022/11/08 08:14:25;;;;;;;0.40;0.40;;;;;;;;;;5092165;28;20024;-70
2022/11/08 08:16:51;;;;;;;2.58;2.47;;;;;;;;;;5090686;28;20463;-72
2022/11/08 08:19:17;;;;;;;0.20;0.20;;;;;;;;;;5091452;28;20039;-71
2022/11/08 08:21:43;;;;;;;0.10;0.10;;;;;;;;;;5094916;28;20103;-70
2022/11/08 08:24:09;;;;;;;0.15;0.15;;;;;;;;;;5087068;28;20056;-70
2022/11/08 08:26:34;;;;;;;0.20;0.20;;;;;;;;;;5091341;28;20077;-71
2022/11/08 08:29:00;;;;;;;0.13;0.13;;;;;;;;;;5098467;28;20044;-71
2022/11/08 08:31:26;;;;;;;0.10;0.10;;;;;;;;;;5093958;28;20046;-72
2022/11/08 08:33:52;;;;;;;3.30;2.05;;;;;;;;;;5106164;28;20031;-71
2022/11/08 08:36:18;;;;;;;0.17;0.17;;;;;;;;;;5097838;28;20550;-71
2022/11/08 08:38:43;;;;;;;0.10;0.10;;;;;;;;;;5087270;28;20032;-72
2022/11/08 08:41:09;;;;;;;0.10;0.10;;;;;;;;;;5097826;28;20028;-71
2022/11/08 08:43:34;;;;;;;0.17;0.17;;;;;;;;;;5096745;28;20036;-71
2022/11/08 08:46:02;;;;;;;0.77;0.77;;;;;;;;;;5092840;28;20101;-71
2022/11/08 08:48:28;;;;;;;0.20;0.20;;;;;;;;;;5085421;28;20085;-71
2022/11/08 08:50:54;;;;;;;0.20;0.20;;;;;;;;;;5086402;28;20089;-72
2022/11/08 08:53:20;;;;;;;0.20;0.20;;;;;;;;;;5086913;28;20024;-73
2022/11/08 08:55:46;;;;;;;0.20;0.20;;;;;;;;;;5092643;28;20382;-73
2022/11/08 08:58:13;;;;;;;0.47;0.47;;;;;;;;;;5091467;28;20032;-73
2022/11/08 09:00:38;;;;;;;0.20;0.20;;;;;;;;;;5086612;28;20048;-72
2022/11/08 09:03:05;;;;;;;0.20;0.20;;;;;;;;;;5100424;28;20056;-73
2022/11/08 09:05:31;;;;;;;0.20;0.20;;;;;;;;;;5099830;28;20032;-73
2022/11/08 09:07:57;;;;;;;0.20;0.20;;;;;;;;;;5086081;28;20462;-73
2022/11/08 09:10:23;;;;;;;0.20;0.20;;;;;;;;;;5085400;28;20040;-72
2022/11/08 09:12:49;;;;;;;0.30;0.30;;;;;;;;;;5086344;28;20440;-71
2022/11/08 09:15:15;;;;;;;0.10;0.10;;;;;;;;;;5085699;28;20896;-72
2022/11/08 09:17:41;;;;;;;0.20;0.20;;;;;;;;;;5086616;28;20479;-72
2022/11/08 09:20:07;;;;;;;0.20;0.20;;;;;;;;;;5086327;28;20031;-71
2022/11/08 09:22:33;;;;;;;0.20;0.20;;;;;;;;;;5086774;28;20060;-72
2022/11/08 09:24:59;;;;;;;0.20;0.20;;;;;;;;;;5086562;28;20042;-71
2022/11/08 09:27:26;;;;;;;0.25;0.25;;;;;;;;;;5086641;28;20540;-72
2022/11/08 09:29:51;;;;;;;0.30;0.30;;;;;;;;;;5086756;28;20177;-72
2022/11/08 09:32:17;;;;;;;0.20;0.20;;;;;;;;;;5099948;28;20609;-72
2022/11/08 09:34:43;;;;;;;0.20;0.20;;;;;;;;;;5108477;28;20031;-71
2022/11/08 09:37:09;;;;;;;1.05;1.00;;;;;;;;;;5113421;28;20100;-71
2022/11/08 09:39:35;;;;;;;0.30;0.30;;;;;;;;;;5105441;28;20069;-71
2022/11/08 09:42:19;;;;;;;0.20;0.20;;;;;;;;;;5098834;28;20023;-71
2022/11/08 09:45:03;;;;;;;0.20;0.20;;;;;;;;;;5091572;28;20028;-72
2022/11/08 09:47:30;;;;;;;0.20;0.20;;;;;;;;;;5090406;28;20062;-72
2022/11/08 09:50:01;;;;;;;0.20;0.20;;;;;;;;;;5090134;28;20435;-71
2022/11/08 09:52:28;;;;;;;0.22;0.22;;;;;;;;;;5090772;28;20036;-73
2022/11/08 09:55:14;;;;;;;0.20;0.20;;;;;;;;;;5109695;28;20024;-72
2022/11/08 09:57:50;;;;;;;0.20;0.20;;;;;;;;;;5112595;28;20035;-71
2022/11/08 10:00:16;;;;;;;0.20;0.20;;;;;;;;;;5111901;28;20038;-72
2022/11/08 10:02:42;;;;;;;0.20;0.20;;;;;;;;;;5109912;28;20929;-72
2022/11/08 10:05:14;;;;;;;0.20;0.20;;;;;;;;;;5109919;28;20077;-72
2022/11/08 10:07:48;;;;;;;0.20;0.20;;;;;;;;;;5110231;28;20550;-71
2022/11/08 10:10:17;;;;;;;0.30;0.30;;;;;;;;;;5108254;28;20032;-71
2022/11/08 10:12:45;;;;;;;0.30;0.30;;;;;;;;;;5109794;28;20032;-72
2022/11/08 10:15:11;;;;;;;0.20;0.20;;;;;;;;;;5110296;28;20438;-71
2022/11/08 10:17:49;;;;;;;0.20;0.20;;;;;;;;;;5111422;28;20092;-70
2022/11/08 10:20:34;;;;;;;0.20;0.20;;;;;;;;;;5111459;28;20035;-71
2022/11/08 10:23:12;;;;;;;0.20;0.20;;;;;;;;;;5110181;28;20098;-72
2022/11/08 10:25:43;;;;;;;0.20;0.20;;;;;;;;;;5110294;28;20039;-72
2022/11/08 10:28:13;;;;;;;0.20;0.20;;;;;;;;;;5111633;28;20076;-70
2022/11/08 10:30:38;;;;;;;;;;;;;;;;;;5108947;28;20442;-70
2022/11/08 10:33:13;;;;;;;0.20;0.20;;;;;;;;;;5110121;28;20002;-71
2022/11/08 10:35:58;;;;;;;0.20;0.20;;;;;;;;;;5111342;28;20288;-71
2022/11/08 10:38:30;;;;;;;0.20;0.20;;;;;;;;;;5110826;28;20039;-71
2022/11/08 10:41:10;;;;;;;0.20;0.20;;;;;;;;;;5092801;28;20028;-70
2022/11/08 10:43:45;;;;;;;0.20;0.20;;;;;;;;;;5107825;28;20486;-72
2022/11/08 10:46:29;;;;;;;8.68;0.93;;;;;;;;;;5090299;28;20135;-73
2022/11/08 10:48:57;;;;;;;0.20;0.20;;;;;;;;;;5090470;28;20032;-72
2022/11/08 10:51:23;;;;;;;0.20;0.20;;;;;;;;;;5090815;28;20075;-72
2022/11/08 10:53:49;;;;;;;0.43;0.43;;;;;;;;;;5090936;28;20514;-72
2022/11/08 10:56:14;;;;;;;0.30;0.30;;;;;;;;;;5090941;28;20024;-72
2022/11/08 10:58:41;;;;;;;0.20;0.20;;;;;;;;;;5089101;28;20471;-73
2022/11/08 11:01:20;;;;;;;0.20;0.20;;;;;;;;;;5090493;28;20046;-71
2022/11/08 11:03:46;;;;;;;0.30;0.30;;;;;;;;;;5090591;28;20026;-71
2022/11/08 11:06:21;;;;;;;0.30;0.30;;;;;;;;;;5089051;28;20467;-72
2022/11/08 11:08:48;;;;;;;0.20;0.20;;;;;;;;;;5110232;28;20487;-71
2022/11/08 11:11:36;;;;;;;0.30;0.30;;;;;;;;;;5110727;28;20554;-71
2022/11/08 11:14:13;;;;;;;0.20;0.20;;;;;;;;;;5105294;28;20070;-72
2022/11/08 11:16:48;;;;;;;0.30;0.30;;;;;;;;;;5110658;28;20114;-71
2022/11/08 11:19:14;;;;;;;0.25;0.25;;;;;;;;;;5110591;28;20031;-71
2022/11/08 11:21:42;;;;;;;0.40;0.40;;;;;;;;;;5110801;28;20047;-70
2022/11/08 11:24:16;;;;;;;0.28;0.28;;;;;;;;;;5110234;28;20069;-70
2022/11/08 11:26:57;;;;;;;0.20;0.20;;;;;;;;;;5110299;28;20051;-71
2022/11/08 11:29:27;;;;;;;0.22;0.22;;;;;;;;;;5110264;28;20031;-72
2022/11/08 11:31:53;;;;;;;0.20;0.20;;;;;;;;;;5100816;28;20031;-72
2022/11/08 11:34:19;;;;;;;9.10;2.17;;;;;;;;;;5090098;28;20089;-71
2022/11/08 11:37:03;;;;;;;0.20;0.20;;;;;;;;;;5091563;28;20028;-72
2022/11/08 11:39:48;;;;;;;0.28;0.28;;;;;;;;;;5099474;28;20118;-72
2022/11/08 11:42:22;;;;;;;0.22;0.22;;;;;;;;;;5107710;28;20031;-73
2022/11/08 11:44:50;;;;;;;0.30;0.30;;;;;;;;;;5098931;28;20360;-71
2022/11/08 11:47:29;;;;;;;0.20;0.20;;;;;;;;;;5089816;28;20475;-72
2022/11/08 11:49:57;;;;;;;0.25;0.25;;;;;;;;;;5089404;28;20499;-71
2022/11/08 11:52:22;;;;;;;0.20;0.20;;;;;;;;;;5089700;28;20024;-71
2022/11/08 11:54:49;;;;;;;0.30;0.30;;;;;;;;;;5089428;28;20043;-71
2022/11/08 11:57:38;;;;;;;2.63;0.90;;;;;;;;;;5089611;28;20024;-71
2022/11/08 12:00:06;;;;;;;0.30;0.30;;;;;;;;;;5086306;28;20044;-70
2022/11/08 12:02:54;;;;;;;0.25;0.25;;;;;;;;;;5091348;28;20118;-71
2022/11/08 12:05:38;;;;;;;0.32;0.32;;;;;;;;;;5104249;28;20028;-71
2022/11/08 12:08:13;;;;;;;0.20;0.20;;;;;;;;;;5104394;28;20068;-70
2022/11/08 12:10:58;;;;;;;0.20;0.20;;;;;;;;;;5097304;28;20518;-71
2022/11/08 12:13:41;;;;;;;0.22;0.22;;;;;;;;;;5109740;28;20072;-71
2022/11/08 12:16:14;;;;;;;0.20;0.20;;;;;;;;;;5109550;28;20029;-71
2022/11/08 12:18:48;;;;;;;0.20;0.20;;;;;;;;;;5087905;28;20076;-71
2022/11/08 12:21:24;;;;;;;1.67;1.10;;;;;;;;;;5088536;28;20032;-71
2022/11/08 12:23:55;;;;;;;2.25;1.05;;;;;;;;;;5089605;28;20024;-71
2022/11/08 12:26:40;;;;;;;1.83;1.10;;;;;;;;;;5089786;28;20020;-72
2022/11/08 12:29:15;;;;;;;1.75;0.75;;;;;;;;;;5089371;28;20032;-71
2022/11/08 12:31:49;;;;;;;0.20;0.20;;;;;;;;;;5089282;28;20063;-72
2022/11/08 12:34:33;;;;;;;1.25;0.90;;;;;;;;;;5089204;28;20024;-71
2022/11/08 12:36:59;;;;;;;0.90;0.85;;;;;;;;;;5092438;28;20032;-72
2022/11/08 12:39:57;;;;;;;0.43;0.43;;;;;;;;;;5109239;28;20016;-71
2022/11/08 12:42:38;;;;;;;0.68;0.63;;;;;;;;;;5071313;28;20391;-71
2022/11/08 12:45:22;;;;;;;0.30;0.30;;;;;;;;;;5099868;28;20496;-72
2022/11/08 12:48:08;;;;;;;0.70;0.60;;;;;;;;;;5099039;28;20127;-71
2022/11/08 12:50:34;;;;;;;0.17;0.17;;;;;;;;;;5084529;28;20509;-71
2022/11/08 12:53:03;;;;;;;4.05;1.00;;;;;;;;;;5088000;28;20036;-71
2022/11/08 12:55:33;;;;;;;1.05;0.50;;;;;;;;;;5088910;28;20097;-70
2022/11/08 12:58:01;;;;;;;2.13;1.00;;;;;;;;;;5088845;28;20032;-73
2022/11/08 13:00:27;;;;;;;0.95;0.77;;;;;;;;;;5087677;28;20024;-71
2022/11/08 13:03:11;;;;;;;0.30;0.30;;;;;;;;;;5088700;28;20019;-70
2022/11/08 13:05:41;;;;;;;0.25;0.25;;;;;;;;;;5088557;28;20077;-70
2022/11/08 13:08:18;;;;;;;0.68;0.50;;;;;;;;;;5089337;28;20383;-71
2022/11/08 13:10:46;;;;;;;0.47;0.35;;;;;;;;;;5090769;28;20467;-71
2022/11/08 13:13:24;;;;;;;0.22;0.22;;;;;;;;;;5105613;28;20458;-71
2022/11/08 13:16:13;;;;;;;0.57;0.40;;;;;;;;;;5097597;28;20061;-72
2022/11/08 13:18:42;;;;;;;0.40;0.40;;;;;;;;;;5104061;28;20046;-72
2022/11/08 13:21:27;;;;;;;1.25;0.85;;;;;;;;;;5112358;28;20039;-71
2022/11/08 13:23:53;;;;;;;4.10;0.98;;;;;;;;;;5112666;28;20427;-71
2022/11/08 13:26:24;;;;;;;0.30;0.30;;;;;;;;;;5113205;28;20035;-71
2022/11/08 13:28:50;;;;;;;0.85;0.68;;;;;;;;;;5112161;28;20027;-71
2022/11/08 13:31:26;;;;;;;0.85;0.57;;;;;;;;;;5112713;28;20023;-72
2022/11/08 13:34:04;;;;;;;0.63;0.47;;;;;;;;;;5113046;28;20036;-70
2022/11/08 13:36:45;;;;;;;0.45;0.43;;;;;;;;;;5112709;27;20131;-70
2022/11/08 13:39:23;;;;;;;0.38;0.38;;;;;;;;;;5107942;28;20038;-71
2022/11/08 13:42:21;;;;;;;0.22;0.22;;;;;;;;;;5105751;28;20032;-71
2022/11/08 13:44:53;;;;;;;0.40;0.40;;;;;;;;;;5091452;28;20104;-71
2022/11/08 13:47:47;;;;;;;0.20;0.20;;;;;;;;;;5092865;28;20048;-71
2022/11/08 13:50:32;;;;;;;0.85;0.73;;;;;;;;;;5110736;28;20051;-71
2022/11/08 13:53:07;;;;;;;0.20;0.20;;;;;;;;;;5109538;28;20485;-71
2022/11/08 13:55:42;;;;;;;1.75;1.20;;;;;;;;;;5103415;28;20065;-72
2022/11/08 13:58:26;;;;;;;0.88;0.63;;;;;;;;;;5105681;28;20153;-72
2022/11/08 14:00:52;;;;;;;5.47;1.20;;;;;;;;;;5110779;28;20038;-72
2022/11/08 14:03:33;;;;;;;0.20;0.20;;;;;;;;;;5092422;28;20035;-72
2022/11/08 14:06:12;;;;;;;1.88;0.75;;;;;;;;;;5091639;28;20441;-71
2022/11/08 14:08:53;;;;;;;0.20;0.20;;;;;;;;;;5090108;28;20036;-71
2022/11/08 14:11:38;;;;;;;0.32;0.32;;;;;;;;;;5091428;28;20089;-72
2022/11/08 14:14:19;;;;;;;0.77;0.45;;;;;;;;;;5091689;28;20027;-73
2022/11/08 14:16:56;;;;;;;0.40;0.40;;;;;;;;;;5091065;28;20488;-72
2022/11/08 14:19:23;;;;;;;0.20;0.20;;;;;;;;;;5089624;28;20063;-72
2022/11/08 14:21:53;;;;;;;0.40;0.40;;;;;;;;;;5090311;28;20036;-72
2022/11/08 14:24:22;;;;;;;0.20;0.20;;;;;;;;;;5090011;28;20028;-71
2022/11/08 14:26:48;;;;;;;0.52;0.52;;;;;;;;;;5090967;28;20020;-72
2022/11/08 14:29:15;;;;;;;0.25;0.25;;;;;;;;;;5090386;28;20032;-72
2022/11/08 14:31:41;;;;;;;0.22;0.22;;;;;;;;;;5091046;28;20089;-72
2022/11/08 14:34:25;;;;;;;0.20;0.20;;;;;;;;;;5090062;28;20482;-72
2022/11/08 14:36:51;;;;;;;0.95;0.52;;;;;;;;;;5092060;28;20036;-72
2022/11/08 14:39:18;;;;;;;0.68;0.57;;;;;;;;;;5111320;28;20030;-71
2022/11/08 14:41:44;;;;;;;0.75;0.47;;;;;;;;;;5099412;28;20461;-73
2022/11/08 14:44:12;;;;;;;0.43;0.43;;;;;;;;;;5093957;28;20348;-72
2022/11/08 14:46:38;;;;;;;0.45;0.43;;;;;;;;;;5096041;28;20477;-72
2022/11/08 14:49:09;;;;;;;0.20;0.20;;;;;;;;;;5095333;28;20066;-71
2022/11/08 14:51:35;;;;;;;0.25;0.25;;;;;;;;;;5101599;28;20035;-72
2022/11/08 14:54:01;;;;;;;0.50;0.50;;;;;;;;;;5090999;28;20463;-71
2022/11/08 14:56:35;;;;;;;0.20;0.20;;;;;;;;;;5090416;28;20028;-73
2022/11/08 14:59:03;;;;;;;0.85;0.50;;;;;;;;;;5090405;28;20028;-71
2022/11/08 15:01:30;;;;;;;0.50;0.40;;;;;;;;;;5089161;28;20028;-72
2022/11/08 15:03:57;;;;;;;0.30;0.30;;;;;;;;;;5090456;28;20467;-72
2022/11/08 15:06:30;;;;;;;0.40;0.40;;;;;;;;;;5090349;28;20020;-71
2022/11/08 15:08:56;;;;;;;0.30;0.30;;;;;;;;;;5089967;28;20049;-72
2022/11/08 15:11:30;;;;;;;0.20;0.20;;;;;;;;;;5090732;28;20028;-71
2022/11/08 15:14:01;;;;;;;0.75;0.73;;;;;;;;;;5089086;28;20114;-71